sensor_id;sensor_type;location;lat;lon;timestamp;temperature;humidity
9448;DHT22;4762;48.128;11.376;2023-02-02T00:01:32;3.40;83.60
9448;DHT22;4762;48.128;11.376;2023-02-02T00:03:34;3.50;83.60
9448;DHT22;4762;48.128;11.376;2023-02-02T00:05:36;3.50;83.80
9448;DHT22;4762;48.128;11.376;2023-02-02T00:07:39;3.50;83.50
9448;DHT22;4762;48.128;11.376;2023-02-02T00:09:41;3.50;83.40
9448;DHT22;4762;48.128;11.376;2023-02-02T00:11:44;3.60;83.10
9448;DHT22;4762;48.128;11.376;2023-02-02T00:13:45;3.50;83.30
9448;DHT22;4762;48.128;11.376;2023-02-02T00:15:48;3.60;83.20
9448;DHT22;4762;48.128;11.376;2023-02-02T00:17:50;3.50;83.30
9448;DHT22;4762;48.128;11.376;2023-02-02T00:19:52;3.60;83.40
9448;DHT22;4762;48.128;11.376;2023-02-02T00:21:54;3.50;83.80
9448;DHT22;4762;48.128;11.376;2023-02-02T00:23:57;3.30;84.20
9448;DHT22;4762;48.128;11.376;2023-02-02T00:25:59;3.40;84.10
9448;DHT22;4762;48.128;11.376;2023-02-02T00:28:01;3.20;84.60
9448;DHT22;4762;48.128;11.376;2023-02-02T00:30:04;3.20;84.50
9448;DHT22;4762;48.128;11.376;2023-02-02T00:32:18;3.30;84.60
9448;DHT22;4762;48.128;11.376;2023-02-02T00:34:21;3.30;84.60
9448;DHT22;4762;48.128;11.376;2023-02-02T00:36:23;3.20;84.70
9448;DHT22;4762;48.128;11.376;2023-02-02T00:38:25;3.20;85.00
9448;DHT22;4762;48.128;11.376;2023-02-02T00:40:27;3.20;85.00
9448;DHT22;4762;48.128;11.376;2023-02-02T00:42:30;3.20;85.40
9448;DHT22;4762;48.128;11.376;2023-02-02T00:44:33;3.10;86.00
9448;DHT22;4762;48.128;11.376;2023-02-02T00:46:41;3.10;86.50
9448;DHT22;4762;48.128;11.376;2023-02-02T00:48:43;3.10;86.50
9448;DHT22;4762;48.128;11.376;2023-02-02T00:50:45;3.00;86.80
9448;DHT22;4762;48.128;11.376;2023-02-02T00:52:48;3.00;87.10
9448;DHT22;4762;48.128;11.376;2023-02-02T00:54:50;3.00;87.10
9448;DHT22;4762;48.128;11.376;2023-02-02T00:56:52;2.90;87.50
9448;DHT22;4762;48.128;11.376;2023-02-02T00:58:54;2.80;87.70
9448;DHT22;4762;48.128;11.376;2023-02-02T01:00:56;2.80;87.40
9448;DHT22;4762;48.128;11.376;2023-02-02T01:02:59;2.90;87.50
9448;DHT22;4762;48.128;11.376;2023-02-02T01:05:02;2.90;87.40
9448;DHT22;4762;48.128;11.376;2023-02-02T01:07:04;3.10;87.20
9448;DHT22;4762;48.128;11.376;2023-02-02T01:09:06;2.80;87.30
9448;DHT22;4762;48.128;11.376;2023-02-02T01:11:08;3.00;87.60
9448;DHT22;4762;48.128;11.376;2023-02-02T01:13:11;2.90;87.90
9448;DHT22;4762;48.128;11.376;2023-02-02T01:15:13;2.80;87.80
9448;DHT22;4762;48.128;11.376;2023-02-02T01:17:15;2.80;87.50
9448;DHT22;4762;48.128;11.376;2023-02-02T01:19:18;3.10;87.80
9448;DHT22;4762;48.128;11.376;2023-02-02T01:21:20;2.90;87.40
9448;DHT22;4762;48.128;11.376;2023-02-02T01:23:22;2.90;87.30
9448;DHT22;4762;48.128;11.376;2023-02-02T01:25:24;2.90;87.10
9448;DHT22;4762;48.128;11.376;2023-02-02T01:27:27;3.00;87.00
9448;DHT22;4762;48.128;11.376;2023-02-02T01:29:29;3.00;86.80
9448;DHT22;4762;48.128;11.376;2023-02-02T01:31:31;2.90;87.10
9448;DHT22;4762;48.128;11.376;2023-02-02T01:33:34;3.00;86.70
9448;DHT22;4762;48.128;11.376;2023-02-02T01:35:36;3.00;86.70
9448;DHT22;4762;48.128;11.376;2023-02-02T01:37:38;3.00;86.60
9448;DHT22;4762;48.128;11.376;2023-02-02T01:39:40;3.20;86.30
9448;DHT22;4762;48.128;11.376;2023-02-02T01:41:42;3.30;86.20
9448;DHT22;4762;48.128;11.376;2023-02-02T01:43:49;3.20;86.10
9448;DHT22;4762;48.128;11.376;2023-02-02T01:45:50;3.00;86.30
9448;DHT22;4762;48.128;11.376;2023-02-02T01:47:53;2.80;86.70
9448;DHT22;4762;48.128;11.376;2023-02-02T01:49:54;3.10;86.60
9448;DHT22;4762;48.128;11.376;2023-02-02T01:51:58;3.10;86.60
9448;DHT22;4762;48.128;11.376;2023-02-02T01:53:59;2.90;86.40
9448;DHT22;4762;48.128;11.376;2023-02-02T01:56:02;3.00;86.60
9448;DHT22;4762;48.128;11.376;2023-02-02T01:58:10;3.10;86.50
9448;DHT22;4762;48.128;11.376;2023-02-02T02:00:12;3.00;86.60
9448;DHT22;4762;48.128;11.376;2023-02-02T02:02:14;3.00;86.40
9448;DHT22;4762;48.128;11.376;2023-02-02T02:04:16;3.00;86.50
9448;DHT22;4762;48.128;11.376;2023-02-02T02:06:18;3.10;86.60
9448;DHT22;4762;48.128;11.376;2023-02-02T02:08:23;3.00;86.70
9448;DHT22;4762;48.128;11.376;2023-02-02T02:10:23;3.10;86.80
9448;DHT22;4762;48.128;11.376;2023-02-02T02:12:25;3.10;86.60
9448;DHT22;4762;48.128;11.376;2023-02-02T02:19:21;3.10;86.60
9448;DHT22;4762;48.128;11.376;2023-02-02T02:21:39;3.10;86.50
9448;DHT22;4762;48.128;11.376;2023-02-02T02:23:59;3.10;86.50
9448;DHT22;4762;48.128;11.376;2023-02-02T02:26:31;3.10;86.30
9448;DHT22;4762;48.128;11.376;2023-02-02T02:28:46;3.20;86.30
9448;DHT22;4762;48.128;11.376;2023-02-02T02:31:10;3.20;86.10
9448;DHT22;4762;48.128;11.376;2023-02-02T02:33:14;3.00;86.40
9448;DHT22;4762;48.128;11.376;2023-02-02T02:35:51;3.00;86.70
9448;DHT22;4762;48.128;11.376;2023-02-02T02:39:52;3.10;86.30
9448;DHT22;4762;48.128;11.376;2023-02-02T02:41:53;2.90;86.40
9448;DHT22;4762;48.128;11.376;2023-02-02T02:43:55;3.10;86.10
9448;DHT22;4762;48.128;11.376;2023-02-02T02:45:57;3.30;86.00
9448;DHT22;4762;48.128;11.376;2023-02-02T02:47:59;3.20;85.80
9448;DHT22;4762;48.128;11.376;2023-02-02T02:50:02;3.20;86.20
9448;DHT22;4762;48.128;11.376;2023-02-02T02:52:04;3.20;86.00
9448;DHT22;4762;48.128;11.376;2023-02-02T02:54:06;3.10;86.10
9448;DHT22;4762;48.128;11.376;2023-02-02T02:56:13;3.10;86.20
9448;DHT22;4762;48.128;11.376;2023-02-02T02:58:20;3.30;86.20
9448;DHT22;4762;48.128;11.376;2023-02-02T03:02:45;3.20;86.10
9448;DHT22;4762;48.128;11.376;2023-02-02T03:04:50;3.30;86.10
9448;DHT22;4762;48.128;11.376;2023-02-02T03:06:51;3.10;86.20
9448;DHT22;4762;48.128;11.376;2023-02-02T03:09:05;3.20;86.30
9448;DHT22;4762;48.128;11.376;2023-02-02T03:11:06;3.10;86.30
9448;DHT22;4762;48.128;11.376;2023-02-02T03:13:09;3.20;86.50
9448;DHT22;4762;48.128;11.376;2023-02-02T03:15:11;3.10;86.20
9448;DHT22;4762;48.128;11.376;2023-02-02T03:17:14;3.10;86.50
9448;DHT22;4762;48.128;11.376;2023-02-02T03:19:16;3.20;86.90
9448;DHT22;4762;48.128;11.376;2023-02-02T03:21:18;3.10;87.00
9448;DHT22;4762;48.128;11.376;2023-02-02T03:23:20;3.00;87.30
9448;DHT22;4762;48.128;11.376;2023-02-02T03:25:23;2.90;88.80
9448;DHT22;4762;48.128;11.376;2023-02-02T03:27:25;2.60;90.20
9448;DHT22;4762;48.128;11.376;2023-02-02T03:29:27;2.60;90.90
9448;DHT22;4762;48.128;11.376;2023-02-02T03:31:29;2.40;91.60
9448;DHT22;4762;48.128;11.376;2023-02-02T03:33:32;2.60;91.40
9448;DHT22;4762;48.128;11.376;2023-02-02T03:35:34;2.80;91.00
9448;DHT22;4762;48.128;11.376;2023-02-02T03:37:36;2.50;90.50
9448;DHT22;4762;48.128;11.376;2023-02-02T03:39:38;2.90;89.30
9448;DHT22;4762;48.128;11.376;2023-02-02T03:41:40;3.00;89.10
9448;DHT22;4762;48.128;11.376;2023-02-02T03:43:43;2.80;89.10
9448;DHT22;4762;48.128;11.376;2023-02-02T03:45:45;2.90;89.20
9448;DHT22;4762;48.128;11.376;2023-02-02T03:47:47;2.80;89.30
9448;DHT22;4762;48.128;11.376;2023-02-02T03:49:50;2.90;89.20
9448;DHT22;4762;48.128;11.376;2023-02-02T03:51:53;2.90;89.30
9448;DHT22;4762;48.128;11.376;2023-02-02T03:53:55;3.00;89.20
9448;DHT22;4762;48.128;11.376;2023-02-02T03:55:57;3.00;89.10
9448;DHT22;4762;48.128;11.376;2023-02-02T03:57:59;3.00;89.40
9448;DHT22;4762;48.128;11.376;2023-02-02T04:00:02;2.80;89.20
9448;DHT22;4762;48.128;11.376;2023-02-02T04:02:04;3.00;89.20
9448;DHT22;4762;48.128;11.376;2023-02-02T04:04:06;2.90;89.10
9448;DHT22;4762;48.128;11.376;2023-02-02T04:06:09;3.00;88.90
9448;DHT22;4762;48.128;11.376;2023-02-02T04:08:11;2.80;88.80
9448;DHT22;4762;48.128;11.376;2023-02-02T04:10:13;3.00;88.50
9448;DHT22;4762;48.128;11.376;2023-02-02T04:12:15;3.10;88.20
9448;DHT22;4762;48.128;11.376;2023-02-02T04:14:18;3.20;88.30
9448;DHT22;4762;48.128;11.376;2023-02-02T04:16:20;3.10;88.40
9448;DHT22;4762;48.128;11.376;2023-02-02T04:18:22;3.20;88.10
9448;DHT22;4762;48.128;11.376;2023-02-02T04:20:25;3.20;88.20
9448;DHT22;4762;48.128;11.376;2023-02-02T04:22:27;3.30;88.10
9448;DHT22;4762;48.128;11.376;2023-02-02T04:24:29;3.30;88.00
9448;DHT22;4762;48.128;11.376;2023-02-02T04:26:31;3.30;87.90
9448;DHT22;4762;48.128;11.376;2023-02-02T04:28:34;3.10;88.10
9448;DHT22;4762;48.128;11.376;2023-02-02T04:30:36;3.20;88.40
9448;DHT22;4762;48.128;11.376;2023-02-02T04:32:38;3.10;88.50
9448;DHT22;4762;48.128;11.376;2023-02-02T04:34:41;3.10;88.30
9448;DHT22;4762;48.128;11.376;2023-02-02T04:36:43;3.20;87.90
9448;DHT22;4762;48.128;11.376;2023-02-02T04:38:47;3.20;88.10
9448;DHT22;4762;48.128;11.376;2023-02-02T04:40:47;3.20;87.60
9448;DHT22;4762;48.128;11.376;2023-02-02T04:42:49;3.30;88.00
9448;DHT22;4762;48.128;11.376;2023-02-02T04:44:52;3.10;87.70
9448;DHT22;4762;48.128;11.376;2023-02-02T04:46:54;3.20;87.80
9448;DHT22;4762;48.128;11.376;2023-02-02T04:48:56;3.40;87.60
9448;DHT22;4762;48.128;11.376;2023-02-02T04:51:00;3.20;87.50
9448;DHT22;4762;48.128;11.376;2023-02-02T04:53:02;3.40;87.50
9448;DHT22;4762;48.128;11.376;2023-02-02T04:55:04;3.40;87.30
9448;DHT22;4762;48.128;11.376;2023-02-02T04:57:06;3.20;87.10
9448;DHT22;4762;48.128;11.376;2023-02-02T04:59:08;3.40;87.20
9448;DHT22;4762;48.128;11.376;2023-02-02T05:01:14;3.20;87.20
9448;DHT22;4762;48.128;11.376;2023-02-02T05:03:16;3.30;87.20
9448;DHT22;4762;48.128;11.376;2023-02-02T05:05:18;3.30;87.20
9448;DHT22;4762;48.128;11.376;2023-02-02T05:07:20;3.20;87.10
9448;DHT22;4762;48.128;11.376;2023-02-02T05:09:23;3.30;86.90
9448;DHT22;4762;48.128;11.376;2023-02-02T05:11:26;3.30;87.10
9448;DHT22;4762;48.128;11.376;2023-02-02T05:13:47;3.20;87.10
9448;DHT22;4762;48.128;11.376;2023-02-02T05:15:48;3.20;87.10
9448;DHT22;4762;48.128;11.376;2023-02-02T05:17:50;3.30;87.10
9448;DHT22;4762;48.128;11.376;2023-02-02T05:19:53;3.50;86.90
9448;DHT22;4762;48.128;11.376;2023-02-02T05:21:55;3.40;87.00
9448;DHT22;4762;48.128;11.376;2023-02-02T05:23:57;3.40;87.10
9448;DHT22;4762;48.128;11.376;2023-02-02T05:25:59;3.40;86.90
9448;DHT22;4762;48.128;11.376;2023-02-02T05:28:02;3.60;86.90
9448;DHT22;4762;48.128;11.376;2023-02-02T05:30:04;3.50;87.20
9448;DHT22;4762;48.128;11.376;2023-02-02T05:32:07;3.50;87.10
9448;DHT22;4762;48.128;11.376;2023-02-02T05:34:09;3.70;86.80
9448;DHT22;4762;48.128;11.376;2023-02-02T05:36:12;3.50;86.80
9448;DHT22;4762;48.128;11.376;2023-02-02T05:38:14;3.40;87.10
9448;DHT22;4762;48.128;11.376;2023-02-02T05:40:17;3.50;87.10
9448;DHT22;4762;48.128;11.376;2023-02-02T05:42:19;3.50;87.40
9448;DHT22;4762;48.128;11.376;2023-02-02T05:44:21;3.30;87.30
9448;DHT22;4762;48.128;11.376;2023-02-02T05:46:24;3.30;87.40
9448;DHT22;4762;48.128;11.376;2023-02-02T05:48:26;3.40;87.90
9448;DHT22;4762;48.128;11.376;2023-02-02T05:50:28;3.30;87.80
9448;DHT22;4762;48.128;11.376;2023-02-02T05:52:30;3.40;87.60
9448;DHT22;4762;48.128;11.376;2023-02-02T05:54:33;3.40;87.50
9448;DHT22;4762;48.128;11.376;2023-02-02T05:56:35;3.50;87.40
9448;DHT22;4762;48.128;11.376;2023-02-02T05:58:37;3.40;87.30
9448;DHT22;4762;48.128;11.376;2023-02-02T06:00:40;3.30;87.40
9448;DHT22;4762;48.128;11.376;2023-02-02T06:02:42;3.50;87.30
9448;DHT22;4762;48.128;11.376;2023-02-02T06:04:44;3.40;87.30
9448;DHT22;4762;48.128;11.376;2023-02-02T06:06:46;3.50;87.50
9448;DHT22;4762;48.128;11.376;2023-02-02T06:08:48;3.50;87.30
9448;DHT22;4762;48.128;11.376;2023-02-02T06:10:51;3.30;87.40
9448;DHT22;4762;48.128;11.376;2023-02-02T06:12:53;3.40;87.90
9448;DHT22;4762;48.128;11.376;2023-02-02T06:14:55;3.50;87.90
9448;DHT22;4762;48.128;11.376;2023-02-02T06:16:58;3.20;87.70
9448;DHT22;4762;48.128;11.376;2023-02-02T06:19:00;3.50;87.60
9448;DHT22;4762;48.128;11.376;2023-02-02T06:21:03;3.40;87.60
9448;DHT22;4762;48.128;11.376;2023-02-02T06:23:05;3.50;87.50
9448;DHT22;4762;48.128;11.376;2023-02-02T06:29:52;3.30;87.40
9448;DHT22;4762;48.128;11.376;2023-02-02T06:31:54;3.40;87.60
9448;DHT22;4762;48.128;11.376;2023-02-02T06:33:58;3.60;87.70
9448;DHT22;4762;48.128;11.376;2023-02-02T06:36:10;3.50;87.90
9448;DHT22;4762;48.128;11.376;2023-02-02T06:38:12;3.50;87.70
9448;DHT22;4762;48.128;11.376;2023-02-02T06:40:14;3.30;87.70
9448;DHT22;4762;48.128;11.376;2023-02-02T06:42:16;3.30;87.70
9448;DHT22;4762;48.128;11.376;2023-02-02T06:44:19;3.40;87.80
9448;DHT22;4762;48.128;11.376;2023-02-02T06:46:21;3.30;87.60
9448;DHT22;4762;48.128;11.376;2023-02-02T06:48:24;3.40;88.00
9448;DHT22;4762;48.128;11.376;2023-02-02T06:50:26;3.30;88.10
9448;DHT22;4762;48.128;11.376;2023-02-02T06:52:28;3.30;88.40
9448;DHT22;4762;48.128;11.376;2023-02-02T06:54:30;3.20;88.70
9448;DHT22;4762;48.128;11.376;2023-02-02T06:56:32;3.30;88.80
9448;DHT22;4762;48.128;11.376;2023-02-02T06:58:34;3.20;88.80
9448;DHT22;4762;48.128;11.376;2023-02-02T07:00:37;3.30;88.50
9448;DHT22;4762;48.128;11.376;2023-02-02T07:02:39;3.20;88.60
9448;DHT22;4762;48.128;11.376;2023-02-02T07:04:41;3.50;88.70
9448;DHT22;4762;48.128;11.376;2023-02-02T07:06:43;3.10;88.70
9448;DHT22;4762;48.128;11.376;2023-02-02T07:08:46;3.40;88.60
9448;DHT22;4762;48.128;11.376;2023-02-02T07:10:48;3.20;88.70
9448;DHT22;4762;48.128;11.376;2023-02-02T07:12:52;3.40;88.60
9448;DHT22;4762;48.128;11.376;2023-02-02T07:14:53;3.30;88.80
9448;DHT22;4762;48.128;11.376;2023-02-02T07:16:55;3.40;88.40
9448;DHT22;4762;48.128;11.376;2023-02-02T07:18:57;3.30;88.20
9448;DHT22;4762;48.128;11.376;2023-02-02T07:21:00;3.50;88.30
9448;DHT22;4762;48.128;11.376;2023-02-02T07:23:02;3.50;88.40
9448;DHT22;4762;48.128;11.376;2023-02-02T07:25:05;3.50;88.60
9448;DHT22;4762;48.128;11.376;2023-02-02T07:27:07;3.40;88.60
9448;DHT22;4762;48.128;11.376;2023-02-02T07:29:10;3.60;88.70
9448;DHT22;4762;48.128;11.376;2023-02-02T07:31:13;3.40;88.90
9448;DHT22;4762;48.128;11.376;2023-02-02T07:33:15;3.40;89.40
9448;DHT22;4762;48.128;11.376;2023-02-02T07:35:17;3.40;89.30
9448;DHT22;4762;48.128;11.376;2023-02-02T07:37:19;3.30;89.10
9448;DHT22;4762;48.128;11.376;2023-02-02T07:39:22;3.40;88.80
9448;DHT22;4762;48.128;11.376;2023-02-02T07:41:24;3.40;88.90
9448;DHT22;4762;48.128;11.376;2023-02-02T07:43:26;3.40;88.60
9448;DHT22;4762;48.128;11.376;2023-02-02T07:45:28;3.40;88.80
9448;DHT22;4762;48.128;11.376;2023-02-02T07:47:31;3.50;89.00
9448;DHT22;4762;48.128;11.376;2023-02-02T07:49:33;3.50;89.20
9448;DHT22;4762;48.128;11.376;2023-02-02T07:51:35;3.50;89.40
9448;DHT22;4762;48.128;11.376;2023-02-02T07:53:37;3.50;90.20
9448;DHT22;4762;48.128;11.376;2023-02-02T07:55:39;3.40;90.40
9448;DHT22;4762;48.128;11.376;2023-02-02T07:57:42;3.60;90.80
9448;DHT22;4762;48.128;11.376;2023-02-02T07:59:44;3.30;90.80
9448;DHT22;4762;48.128;11.376;2023-02-02T08:01:46;3.30;90.90
9448;DHT22;4762;48.128;11.376;2023-02-02T08:03:48;3.40;90.70
9448;DHT22;4762;48.128;11.376;2023-02-02T08:05:51;3.20;91.00
9448;DHT22;4762;48.128;11.376;2023-02-02T08:07:53;3.20;90.50
9448;DHT22;4762;48.128;11.376;2023-02-02T08:09:55;3.40;90.60
9448;DHT22;4762;48.128;11.376;2023-02-02T08:11:57;3.40;90.60
9448;DHT22;4762;48.128;11.376;2023-02-02T08:14:01;3.40;90.90
9448;DHT22;4762;48.128;11.376;2023-02-02T08:16:02;3.30;90.80
9448;DHT22;4762;48.128;11.376;2023-02-02T08:18:04;3.40;91.00
9448;DHT22;4762;48.128;11.376;2023-02-02T08:20:07;3.40;91.40
9448;DHT22;4762;48.128;11.376;2023-02-02T08:22:10;3.30;91.20
9448;DHT22;4762;48.128;11.376;2023-02-02T08:24:12;3.40;91.30
9448;DHT22;4762;48.128;11.376;2023-02-02T08:26:16;3.30;91.40
9448;DHT22;4762;48.128;11.376;2023-02-02T08:28:17;3.30;91.50
9448;DHT22;4762;48.128;11.376;2023-02-02T08:30:21;3.30;91.60
9448;DHT22;4762;48.128;11.376;2023-02-02T08:32:23;3.30;91.50
9448;DHT22;4762;48.128;11.376;2023-02-02T08:34:25;3.30;91.40
9448;DHT22;4762;48.128;11.376;2023-02-02T08:36:28;3.30;91.60
9448;DHT22;4762;48.128;11.376;2023-02-02T08:38:31;3.30;91.60
9448;DHT22;4762;48.128;11.376;2023-02-02T08:40:33;3.30;92.00
9448;DHT22;4762;48.128;11.376;2023-02-02T08:42:35;3.30;92.20
9448;DHT22;4762;48.128;11.376;2023-02-02T08:44:37;3.40;92.60
9448;DHT22;4762;48.128;11.376;2023-02-02T08:46:40;3.30;92.50
9448;DHT22;4762;48.128;11.376;2023-02-02T08:48:42;3.30;92.60
9448;DHT22;4762;48.128;11.376;2023-02-02T08:50:44;3.30;92.60
9448;DHT22;4762;48.128;11.376;2023-02-02T08:52:46;3.30;92.50
9448;DHT22;4762;48.128;11.376;2023-02-02T08:54:49;3.20;92.50
9448;DHT22;4762;48.128;11.376;2023-02-02T08:56:51;3.20;92.50
9448;DHT22;4762;48.128;11.376;2023-02-02T08:58:54;3.30;92.50
9448;DHT22;4762;48.128;11.376;2023-02-02T09:01:05;3.30;92.70
9448;DHT22;4762;48.128;11.376;2023-02-02T09:03:07;3.30;92.60
9448;DHT22;4762;48.128;11.376;2023-02-02T09:05:09;3.40;92.80
9448;DHT22;4762;48.128;11.376;2023-02-02T09:07:12;3.50;92.40
9448;DHT22;4762;48.128;11.376;2023-02-02T09:09:14;3.40;92.30
9448;DHT22;4762;48.128;11.376;2023-02-02T09:11:17;3.50;92.50
9448;DHT22;4762;48.128;11.376;2023-02-02T09:13:21;3.60;92.60
9448;DHT22;4762;48.128;11.376;2023-02-02T09:15:25;3.50;92.60
9448;DHT22;4762;48.128;11.376;2023-02-02T09:17:28;3.30;92.90
9448;DHT22;4762;48.128;11.376;2023-02-02T09:19:30;3.30;93.30
9448;DHT22;4762;48.128;11.376;2023-02-02T09:21:32;3.30;93.20
9448;DHT22;4762;48.128;11.376;2023-02-02T09:23:36;3.20;93.20
9448;DHT22;4762;48.128;11.376;2023-02-02T09:25:38;3.50;93.20
9448;DHT22;4762;48.128;11.376;2023-02-02T09:27:40;3.20;93.10
9448;DHT22;4762;48.128;11.376;2023-02-02T09:29:42;3.40;93.00
9448;DHT22;4762;48.128;11.376;2023-02-02T09:31:45;3.40;93.30
9448;DHT22;4762;48.128;11.376;2023-02-02T09:33:47;3.30;93.20
9448;DHT22;4762;48.128;11.376;2023-02-02T09:35:49;3.30;93.40
9448;DHT22;4762;48.128;11.376;2023-02-02T09:37:51;3.20;93.30
9448;DHT22;4762;48.128;11.376;2023-02-02T09:39:54;3.40;93.60
9448;DHT22;4762;48.128;11.376;2023-02-02T09:44:24;3.50;93.50
9448;DHT22;4762;48.128;11.376;2023-02-02T09:48:55;3.30;94.50
9448;DHT22;4762;48.128;11.376;2023-02-02T09:50:56;3.40;94.90
9448;DHT22;4762;48.128;11.376;2023-02-02T09:53:04;3.20;94.80
9448;DHT22;4762;48.128;11.376;2023-02-02T09:55:11;3.30;94.50
9448;DHT22;4762;48.128;11.376;2023-02-02T09:57:14;3.30;94.30
9448;DHT22;4762;48.128;11.376;2023-02-02T09:59:18;3.30;94.20
9448;DHT22;4762;48.128;11.376;2023-02-02T10:01:26;3.40;94.00
9448;DHT22;4762;48.128;11.376;2023-02-02T10:03:36;3.30;93.90
9448;DHT22;4762;48.128;11.376;2023-02-02T10:05:52;3.60;94.00
9448;DHT22;4762;48.128;11.376;2023-02-02T10:07:54;3.40;93.80
9448;DHT22;4762;48.128;11.376;2023-02-02T10:09:57;3.50;93.50
9448;DHT22;4762;48.128;11.376;2023-02-02T10:12:05;3.50;93.60
9448;DHT22;4762;48.128;11.376;2023-02-02T10:14:14;3.60;93.00
9448;DHT22;4762;48.128;11.376;2023-02-02T10:16:15;3.60;92.60
9448;DHT22;4762;48.128;11.376;2023-02-02T10:18:31;3.70;92.60
9448;DHT22;4762;48.128;11.376;2023-02-02T10:20:43;3.80;92.60
9448;DHT22;4762;48.128;11.376;2023-02-02T10:22:44;3.40;92.60
9448;DHT22;4762;48.128;11.376;2023-02-02T10:24:46;3.80;92.40
9448;DHT22;4762;48.128;11.376;2023-02-02T10:26:51;3.80;92.10
9448;DHT22;4762;48.128;11.376;2023-02-02T10:29:15;3.70;92.20
9448;DHT22;4762;48.128;11.376;2023-02-02T10:31:21;3.60;92.30
9448;DHT22;4762;48.128;11.376;2023-02-02T10:33:25;3.70;92.00
9448;DHT22;4762;48.128;11.376;2023-02-02T10:35:33;3.50;92.00
9448;DHT22;4762;48.128;11.376;2023-02-02T10:37:52;3.70;91.80
9448;DHT22;4762;48.128;11.376;2023-02-02T10:40:13;3.70;92.00
9448;DHT22;4762;48.128;11.376;2023-02-02T10:42:23;4.00;92.10
9448;DHT22;4762;48.128;11.376;2023-02-02T10:44:29;3.70;91.80
9448;DHT22;4762;48.128;11.376;2023-02-02T10:46:48;3.90;92.10
9448;DHT22;4762;48.128;11.376;2023-02-02T10:49:08;3.90;91.50
9448;DHT22;4762;48.128;11.376;2023-02-02T10:50:53;3.90;91.50
9448;DHT22;4762;48.128;11.376;2023-02-02T10:52:55;4.00;91.60
9448;DHT22;4762;48.128;11.376;2023-02-02T10:55:04;4.00;91.00
9448;DHT22;4762;48.128;11.376;2023-02-02T10:57:04;3.90;91.10
9448;DHT22;4762;48.128;11.376;2023-02-02T10:59:08;3.90;90.80
9448;DHT22;4762;48.128;11.376;2023-02-02T11:01:08;3.90;90.80
9448;DHT22;4762;48.128;11.376;2023-02-02T11:03:12;4.00;90.20
9448;DHT22;4762;48.128;11.376;2023-02-02T11:05:17;4.10;90.40
9448;DHT22;4762;48.128;11.376;2023-02-02T11:07:21;4.10;90.20
9448;DHT22;4762;48.128;11.376;2023-02-02T11:09:27;4.40;90.60
9448;DHT22;4762;48.128;11.376;2023-02-02T11:11:31;4.00;90.40
9448;DHT22;4762;48.128;11.376;2023-02-02T11:13:36;4.20;90.60
9448;DHT22;4762;48.128;11.376;2023-02-02T11:15:36;4.00;90.90
9448;DHT22;4762;48.128;11.376;2023-02-02T11:17:39;4.00;90.60
9448;DHT22;4762;48.128;11.376;2023-02-02T11:19:41;4.10;90.80
9448;DHT22;4762;48.128;11.376;2023-02-02T11:21:46;4.20;90.60
9448;DHT22;4762;48.128;11.376;2023-02-02T11:23:52;4.00;90.80
9448;DHT22;4762;48.128;11.376;2023-02-02T11:25:58;4.00;91.10
9448;DHT22;4762;48.128;11.376;2023-02-02T11:28:00;4.20;91.70
9448;DHT22;4762;48.128;11.376;2023-02-02T11:30:11;4.00;91.40
9448;DHT22;4762;48.128;11.376;2023-02-02T11:32:23;4.00;91.70
9448;DHT22;4762;48.128;11.376;2023-02-02T11:34:22;4.10;91.70
9448;DHT22;4762;48.128;11.376;2023-02-02T11:36:23;3.80;91.50
9448;DHT22;4762;48.128;11.376;2023-02-02T11:38:26;4.00;91.60
9448;DHT22;4762;48.128;11.376;2023-02-02T11:40:29;4.10;91.70
9448;DHT22;4762;48.128;11.376;2023-02-02T11:44:47;4.20;91.80
9448;DHT22;4762;48.128;11.376;2023-02-02T11:46:49;4.10;91.70
9448;DHT22;4762;48.128;11.376;2023-02-02T11:49:02;4.10;92.50
9448;DHT22;4762;48.128;11.376;2023-02-02T11:51:03;4.00;92.30
9448;DHT22;4762;48.128;11.376;2023-02-02T11:53:05;4.10;92.20
9448;DHT22;4762;48.128;11.376;2023-02-02T11:55:08;3.90;92.30
9448;DHT22;4762;48.128;11.376;2023-02-02T11:57:15;4.00;92.60
9448;DHT22;4762;48.128;11.376;2023-02-02T12:01:31;4.00;93.00
9448;DHT22;4762;48.128;11.376;2023-02-02T12:03:34;4.00;93.20
9448;DHT22;4762;48.128;11.376;2023-02-02T12:05:35;3.90;93.30
9448;DHT22;4762;48.128;11.376;2023-02-02T12:07:38;3.90;93.10
9448;DHT22;4762;48.128;11.376;2023-02-02T12:09:40;3.90;93.50
9448;DHT22;4762;48.128;11.376;2023-02-02T12:14:02;3.80;93.70
9448;DHT22;4762;48.128;11.376;2023-02-02T12:16:10;3.80;94.50
9448;DHT22;4762;48.128;11.376;2023-02-02T12:19:04;3.80;94.00
9448;DHT22;4762;48.128;11.376;2023-02-02T12:20:49;3.60;94.40
9448;DHT22;4762;48.128;11.376;2023-02-02T12:22:54;3.60;94.80
9448;DHT22;4762;48.128;11.376;2023-02-02T12:24:55;3.60;95.30
9448;DHT22;4762;48.128;11.376;2023-02-02T12:27:21;3.60;95.50
9448;DHT22;4762;48.128;11.376;2023-02-02T12:29:38;3.50;95.50
9448;DHT22;4762;48.128;11.376;2023-02-02T12:34:00;3.60;95.30
9448;DHT22;4762;48.128;11.376;2023-02-02T12:38:19;3.40;95.60
9448;DHT22;4762;48.128;11.376;2023-02-02T12:40:25;3.60;96.00
9448;DHT22;4762;48.128;11.376;2023-02-02T12:42:34;3.20;96.20
9448;DHT22;4762;48.128;11.376;2023-02-02T12:45:22;3.30;96.40
9448;DHT22;4762;48.128;11.376;2023-02-02T12:47:20;3.30;96.70
9448;DHT22;4762;48.128;11.376;2023-02-02T12:49:41;3.40;96.70
9448;DHT22;4762;48.128;11.376;2023-02-02T12:51:53;3.10;97.20
9448;DHT22;4762;48.128;11.376;2023-02-02T12:56:12;3.30;96.90
9448;DHT22;4762;48.128;11.376;2023-02-02T12:58:18;3.30;97.20
9448;DHT22;4762;48.128;11.376;2023-02-02T13:00:54;3.40;97.60
9448;DHT22;4762;48.128;11.376;2023-02-02T13:02:47;3.40;97.40
9448;DHT22;4762;48.128;11.376;2023-02-02T13:05:05;3.00;97.30
9448;DHT22;4762;48.128;11.376;2023-02-02T13:07:40;3.10;97.80
9448;DHT22;4762;48.128;11.376;2023-02-02T13:10:00;3.20;98.20
9448;DHT22;4762;48.128;11.376;2023-02-02T13:12:17;3.20;97.90
9448;DHT22;4762;48.128;11.376;2023-02-02T13:14:22;3.40;98.20
9448;DHT22;4762;48.128;11.376;2023-02-02T13:16:22;3.40;98.30
9448;DHT22;4762;48.128;11.376;2023-02-02T13:18:27;3.30;97.40
9448;DHT22;4762;48.128;11.376;2023-02-02T13:20:48;3.20;97.80
9448;DHT22;4762;48.128;11.376;2023-02-02T13:22:51;3.30;98.00
9448;DHT22;4762;48.128;11.376;2023-02-02T13:24:53;3.30;98.10
9448;DHT22;4762;48.128;11.376;2023-02-02T13:26:54;3.40;97.30
9448;DHT22;4762;48.128;11.376;2023-02-02T13:29:02;3.50;97.30
9448;DHT22;4762;48.128;11.376;2023-02-02T13:31:04;3.20;98.00
9448;DHT22;4762;48.128;11.376;2023-02-02T13:33:09;3.30;97.70
9448;DHT22;4762;48.128;11.376;2023-02-02T13:35:15;3.30;98.00
9448;DHT22;4762;48.128;11.376;2023-02-02T13:37:19;3.10;98.00
9448;DHT22;4762;48.128;11.376;2023-02-02T13:39:26;3.20;98.20
9448;DHT22;4762;48.128;11.376;2023-02-02T13:41:24;3.20;98.40
9448;DHT22;4762;48.128;11.376;2023-02-02T13:43:34;3.40;98.60
9448;DHT22;4762;48.128;11.376;2023-02-02T13:45:41;3.20;98.70
9448;DHT22;4762;48.128;11.376;2023-02-02T13:47:42;3.30;98.60
9448;DHT22;4762;48.128;11.376;2023-02-02T13:49:45;3.20;98.90
9448;DHT22;4762;48.128;11.376;2023-02-02T13:52:02;3.20;98.40
9448;DHT22;4762;48.128;11.376;2023-02-02T13:56:57;3.10;98.90
9448;DHT22;4762;48.128;11.376;2023-02-02T13:59:12;3.10;99.30
9448;DHT22;4762;48.128;11.376;2023-02-02T14:01:14;3.10;99.10
9448;DHT22;4762;48.128;11.376;2023-02-02T14:03:26;3.00;99.20
9448;DHT22;4762;48.128;11.376;2023-02-02T14:05:30;3.00;99.70
9448;DHT22;4762;48.128;11.376;2023-02-02T14:07:40;2.90;99.50